Eleva, Wisconsin
Current Conditions -  °F | °C
As of 7:56 AM on Friday 24 Oct 2014 (Local Time) from KEAU Reporting Station
Haze Haze  
Wind Chill: 46°   Ceiling: 300
Heat Index: 49°   Visibility: 5mi
Dew Point: 48°   Wind: 7mph
Humidity: 97%   Direction: 160°SSE
Pressure: 29.96"   Gusts: NA
Location:  44.58°N, 91.47°W
Report Text: KEAU 241256Z 16006KT 5SM BR OVC003 09/09 A2996 RMK AO2 SLP146 T00940089
Loading
Personal Weather Stations






























Interactive Weather Map
Tropical Storm Tracking
New forecast layout! Learn more

10-Day Weather Forecast

Advertisements
Track Severe Weather on mobile